sensor_id;sensor_type;location;lat;lon;timestamp;temperature;humidity
12438;DHT22;6283;51.330;12.374;2023-05-18T00:01:40;10.30;1.00
12438;DHT22;6283;51.330;12.374;2023-05-18T00:04:06;10.30;1.00
12438;DHT22;6283;51.330;12.374;2023-05-18T00:06:32;10.00;1.00
12438;DHT22;6283;51.330;12.374;2023-05-18T00:08:58;10.00;1.00
12438;DHT22;6283;51.330;12.374;2023-05-18T00:11:24;10.10;1.00
12438;DHT22;6283;51.330;12.374;2023-05-18T00:13:49;10.00;1.00
12438;DHT22;6283;51.330;12.374;2023-05-18T00:16:15;10.10;1.00
12438;DHT22;6283;51.330;12.374;2023-05-18T00:18:41;10.00;1.00
12438;DHT22;6283;51.330;12.374;2023-05-18T00:21:06;10.00;1.00
12438;DHT22;6283;51.330;12.374;2023-05-18T00:23:33;9.90;1.00
12438;DHT22;6283;51.330;12.374;2023-05-18T00:26:00;9.90;1.00
12438;DHT22;6283;51.330;12.374;2023-05-18T00:28:27;9.70;1.00
12438;DHT22;6283;51.330;12.374;2023-05-18T00:30:53;9.50;1.00
12438;DHT22;6283;51.330;12.374;2023-05-18T00:33:20;9.70;1.00
12438;DHT22;6283;51.330;12.374;2023-05-18T00:35:45;9.60;1.00
12438;DHT22;6283;51.330;12.374;2023-05-18T00:38:11;9.60;1.00
12438;DHT22;6283;51.330;12.374;2023-05-18T00:40:39;9.40;1.00
12438;DHT22;6283;51.330;12.374;2023-05-18T00:43:05;9.30;1.00
12438;DHT22;6283;51.330;12.374;2023-05-18T00:45:31;9.40;1.00
12438;DHT22;6283;51.330;12.374;2023-05-18T00:47:56;9.30;1.00
12438;DHT22;6283;51.330;12.374;2023-05-18T00:50:22;9.40;1.00
12438;DHT22;6283;51.330;12.374;2023-05-18T00:52:48;9.40;1.00
12438;DHT22;6283;51.330;12.374;2023-05-18T00:55:15;9.60;1.00
12438;DHT22;6283;51.330;12.374;2023-05-18T00:57:42;9.50;1.00
12438;DHT22;6283;51.330;12.374;2023-05-18T01:00:10;9.60;1.00
12438;DHT22;6283;51.330;12.374;2023-05-18T01:02:38;9.20;1.00
12438;DHT22;6283;51.330;12.374;2023-05-18T01:05:07;9.10;1.00
12438;DHT22;6283;51.330;12.374;2023-05-18T01:07:39;9.30;1.00
12438;DHT22;6283;51.330;12.374;2023-05-18T01:10:07;9.10;1.00
12438;DHT22;6283;51.330;12.374;2023-05-18T01:15:15;9.20;1.00
12438;DHT22;6283;51.330;12.374;2023-05-18T01:26:19;9.00;1.00
12438;DHT22;6283;51.330;12.374;2023-05-18T01:28:50;8.80;1.00
12438;DHT22;6283;51.330;12.374;2023-05-18T01:31:16;8.90;1.00
12438;DHT22;6283;51.330;12.374;2023-05-18T01:33:42;9.00;1.00
12438;DHT22;6283;51.330;12.374;2023-05-18T01:36:08;9.10;1.00
12438;DHT22;6283;51.330;12.374;2023-05-18T01:38:35;9.00;1.00
12438;DHT22;6283;51.330;12.374;2023-05-18T01:41:24;8.90;1.00
12438;DHT22;6283;51.330;12.374;2023-05-18T01:44:11;8.90;1.00
12438;DHT22;6283;51.330;12.374;2023-05-18T01:47:07;8.80;1.00
12438;DHT22;6283;51.330;12.374;2023-05-18T01:50:24;8.90;1.00
12438;DHT22;6283;51.330;12.374;2023-05-18T01:55:00;8.80;1.00
12438;DHT22;6283;51.330;12.374;2023-05-18T01:57:29;8.70;1.00
12438;DHT22;6283;51.330;12.374;2023-05-18T01:59:57;8.60;1.00
12438;DHT22;6283;51.330;12.374;2023-05-18T02:02:25;8.80;1.00
12438;DHT22;6283;51.330;12.374;2023-05-18T02:04:51;8.80;1.00
12438;DHT22;6283;51.330;12.374;2023-05-18T02:07:17;8.80;1.00
12438;DHT22;6283;51.330;12.374;2023-05-18T02:09:42;8.60;1.00
12438;DHT22;6283;51.330;12.374;2023-05-18T02:12:11;8.50;1.00
12438;DHT22;6283;51.330;12.374;2023-05-18T02:14:36;8.20;1.00
12438;DHT22;6283;51.330;12.374;2023-05-18T02:17:02;8.40;1.00
12438;DHT22;6283;51.330;12.374;2023-05-18T02:19:28;8.40;1.00
12438;DHT22;6283;51.330;12.374;2023-05-18T02:21:57;8.30;1.00
12438;DHT22;6283;51.330;12.374;2023-05-18T02:24:23;8.20;1.00
12438;DHT22;6283;51.330;12.374;2023-05-18T02:26:49;8.40;1.00
12438;DHT22;6283;51.330;12.374;2023-05-18T02:29:16;8.30;1.00
12438;DHT22;6283;51.330;12.374;2023-05-18T02:31:42;8.40;1.00
12438;DHT22;6283;51.330;12.374;2023-05-18T02:34:07;8.30;1.00
12438;DHT22;6283;51.330;12.374;2023-05-18T02:36:33;8.60;1.00
12438;DHT22;6283;51.330;12.374;2023-05-18T02:39:05;8.60;1.00
12438;DHT22;6283;51.330;12.374;2023-05-18T02:41:31;8.60;1.00
12438;DHT22;6283;51.330;12.374;2023-05-18T02:43:57;8.40;1.00
12438;DHT22;6283;51.330;12.374;2023-05-18T02:46:23;8.40;1.00
12438;DHT22;6283;51.330;12.374;2023-05-18T02:48:49;8.40;1.00
12438;DHT22;6283;51.330;12.374;2023-05-18T02:51:14;8.40;1.00
12438;DHT22;6283;51.330;12.374;2023-05-18T02:53:40;8.40;1.00
12438;DHT22;6283;51.330;12.374;2023-05-18T02:56:09;8.40;1.00
12438;DHT22;6283;51.330;12.374;2023-05-18T02:58:34;8.20;1.00
12438;DHT22;6283;51.330;12.374;2023-05-18T03:01:00;8.20;1.00
12438;DHT22;6283;51.330;12.374;2023-05-18T03:03:28;8.20;1.00
12438;DHT22;6283;51.330;12.374;2023-05-18T03:05:54;8.10;1.00
12438;DHT22;6283;51.330;12.374;2023-05-18T03:08:20;8.00;1.00
12438;DHT22;6283;51.330;12.374;2023-05-18T03:10:50;8.30;1.00
12438;DHT22;6283;51.330;12.374;2023-05-18T03:13:15;8.10;1.00
12438;DHT22;6283;51.330;12.374;2023-05-18T03:15:41;8.40;1.00
12438;DHT22;6283;51.330;12.374;2023-05-18T03:18:10;8.30;1.00
12438;DHT22;6283;51.330;12.374;2023-05-18T03:20:36;8.30;1.00
12438;DHT22;6283;51.330;12.374;2023-05-18T03:23:02;8.20;1.00
12438;DHT22;6283;51.330;12.374;2023-05-18T03:25:28;8.10;1.00
12438;DHT22;6283;51.330;12.374;2023-05-18T03:27:55;7.90;1.00
12438;DHT22;6283;51.330;12.374;2023-05-18T03:30:21;7.90;1.00
12438;DHT22;6283;51.330;12.374;2023-05-18T03:32:47;8.00;1.00
12438;DHT22;6283;51.330;12.374;2023-05-18T03:35:13;7.80;1.00
12438;DHT22;6283;51.330;12.374;2023-05-18T03:37:39;7.70;1.00
12438;DHT22;6283;51.330;12.374;2023-05-18T03:40:12;7.70;1.00
12438;DHT22;6283;51.330;12.374;2023-05-18T03:42:39;7.60;1.00
12438;DHT22;6283;51.330;12.374;2023-05-18T03:45:07;7.60;1.00
12438;DHT22;6283;51.330;12.374;2023-05-18T03:47:32;7.60;1.00
12438;DHT22;6283;51.330;12.374;2023-05-18T03:49:58;7.50;1.00
12438;DHT22;6283;51.330;12.374;2023-05-18T03:52:24;7.80;1.00
12438;DHT22;6283;51.330;12.374;2023-05-18T03:54:50;7.70;1.00
12438;DHT22;6283;51.330;12.374;2023-05-18T03:57:16;8.00;1.00
12438;DHT22;6283;51.330;12.374;2023-05-18T03:59:43;7.80;1.00
12438;DHT22;6283;51.330;12.374;2023-05-18T04:02:10;7.70;1.00
12438;DHT22;6283;51.330;12.374;2023-05-18T04:04:36;8.10;1.00
12438;DHT22;6283;51.330;12.374;2023-05-18T04:07:02;7.90;1.00
12438;DHT22;6283;51.330;12.374;2023-05-18T04:09:30;8.20;1.00
12438;DHT22;6283;51.330;12.374;2023-05-18T04:11:56;8.20;1.00
12438;DHT22;6283;51.330;12.374;2023-05-18T04:14:22;8.10;1.00
12438;DHT22;6283;51.330;12.374;2023-05-18T04:16:49;8.20;1.00
12438;DHT22;6283;51.330;12.374;2023-05-18T04:19:17;8.10;1.00
12438;DHT22;6283;51.330;12.374;2023-05-18T04:21:43;8.00;1.00
12438;DHT22;6283;51.330;12.374;2023-05-18T04:24:12;8.00;1.00
12438;DHT22;6283;51.330;12.374;2023-05-18T04:26:39;8.00;1.00
12438;DHT22;6283;51.330;12.374;2023-05-18T04:29:05;8.10;1.00
12438;DHT22;6283;51.330;12.374;2023-05-18T04:31:32;8.30;1.00
12438;DHT22;6283;51.330;12.374;2023-05-18T04:33:59;8.40;1.00
12438;DHT22;6283;51.330;12.374;2023-05-18T04:36:25;8.40;1.00
12438;DHT22;6283;51.330;12.374;2023-05-18T04:38:55;8.20;1.00
12438;DHT22;6283;51.330;12.374;2023-05-18T04:41:23;8.10;1.00
12438;DHT22;6283;51.330;12.374;2023-05-18T04:43:49;8.10;1.00
12438;DHT22;6283;51.330;12.374;2023-05-18T04:46:15;8.30;1.00
12438;DHT22;6283;51.330;12.374;2023-05-18T04:48:41;8.30;1.00
12438;DHT22;6283;51.330;12.374;2023-05-18T04:51:07;8.30;1.00
12438;DHT22;6283;51.330;12.374;2023-05-18T04:53:33;8.30;1.00
12438;DHT22;6283;51.330;12.374;2023-05-18T04:56:00;8.60;1.00
12438;DHT22;6283;51.330;12.374;2023-05-18T04:58:26;8.50;1.00
12438;DHT22;6283;51.330;12.374;2023-05-18T05:00:55;8.40;1.00
12438;DHT22;6283;51.330;12.374;2023-05-18T05:03:21;8.60;1.00
12438;DHT22;6283;51.330;12.374;2023-05-18T05:05:47;8.90;1.00
12438;DHT22;6283;51.330;12.374;2023-05-18T05:08:13;8.70;1.00
12438;DHT22;6283;51.330;12.374;2023-05-18T05:10:39;9.00;1.00
12438;DHT22;6283;51.330;12.374;2023-05-18T05:13:04;8.80;1.00
12438;DHT22;6283;51.330;12.374;2023-05-18T05:15:30;9.00;1.00
12438;DHT22;6283;51.330;12.374;2023-05-18T05:17:57;9.10;1.00
12438;DHT22;6283;51.330;12.374;2023-05-18T05:20:23;9.10;1.00
12438;DHT22;6283;51.330;12.374;2023-05-18T05:22:48;9.30;1.00
12438;DHT22;6283;51.330;12.374;2023-05-18T05:25:14;9.30;1.00
12438;DHT22;6283;51.330;12.374;2023-05-18T05:27:40;9.30;1.00
12438;DHT22;6283;51.330;12.374;2023-05-18T05:30:06;9.50;1.00
12438;DHT22;6283;51.330;12.374;2023-05-18T05:32:32;9.60;1.00
12438;DHT22;6283;51.330;12.374;2023-05-18T05:34:58;9.50;1.00
12438;DHT22;6283;51.330;12.374;2023-05-18T05:37:23;9.60;1.00
12438;DHT22;6283;51.330;12.374;2023-05-18T05:39:49;10.00;1.00
12438;DHT22;6283;51.330;12.374;2023-05-18T05:42:15;9.80;1.00
12438;DHT22;6283;51.330;12.374;2023-05-18T05:44:41;9.80;1.00
12438;DHT22;6283;51.330;12.374;2023-05-18T05:47:07;10.10;1.00
12438;DHT22;6283;51.330;12.374;2023-05-18T05:49:33;10.10;1.00
12438;DHT22;6283;51.330;12.374;2023-05-18T05:51:59;10.30;1.00
12438;DHT22;6283;51.330;12.374;2023-05-18T05:54:25;10.10;1.00
12438;DHT22;6283;51.330;12.374;2023-05-18T05:56:50;10.10;1.00
12438;DHT22;6283;51.330;12.374;2023-05-18T05:59:16;10.20;1.00
12438;DHT22;6283;51.330;12.374;2023-05-18T06:01:42;10.40;1.00
12438;DHT22;6283;51.330;12.374;2023-05-18T06:04:07;10.40;1.00
12438;DHT22;6283;51.330;12.374;2023-05-18T06:06:37;10.50;1.00
12438;DHT22;6283;51.330;12.374;2023-05-18T06:09:04;10.70;1.00
12438;DHT22;6283;51.330;12.374;2023-05-18T06:11:30;10.80;1.00
12438;DHT22;6283;51.330;12.374;2023-05-18T06:13:56;10.90;1.00
12438;DHT22;6283;51.330;12.374;2023-05-18T06:16:21;10.70;1.00
12438;DHT22;6283;51.330;12.374;2023-05-18T06:18:47;10.70;1.00
12438;DHT22;6283;51.330;12.374;2023-05-18T06:21:14;11.00;1.00
12438;DHT22;6283;51.330;12.374;2023-05-18T06:23:40;10.70;1.00
12438;DHT22;6283;51.330;12.374;2023-05-18T06:26:05;10.90;1.00
12438;DHT22;6283;51.330;12.374;2023-05-18T06:28:31;11.00;1.00
12438;DHT22;6283;51.330;12.374;2023-05-18T06:30:57;11.20;1.00
12438;DHT22;6283;51.330;12.374;2023-05-18T06:33:24;11.20;1.00
12438;DHT22;6283;51.330;12.374;2023-05-18T06:35:50;11.20;1.00
12438;DHT22;6283;51.330;12.374;2023-05-18T06:38:16;11.40;1.00
12438;DHT22;6283;51.330;12.374;2023-05-18T06:40:42;11.40;1.00
12438;DHT22;6283;51.330;12.374;2023-05-18T06:43:08;11.60;1.00
12438;DHT22;6283;51.330;12.374;2023-05-18T06:45:33;11.40;1.00
12438;DHT22;6283;51.330;12.374;2023-05-18T06:47:59;11.40;1.00
12438;DHT22;6283;51.330;12.374;2023-05-18T06:50:24;11.50;1.00
12438;DHT22;6283;51.330;12.374;2023-05-18T06:52:50;11.80;1.00
12438;DHT22;6283;51.330;12.374;2023-05-18T06:55:16;11.90;1.00
12438;DHT22;6283;51.330;12.374;2023-05-18T06:57:42;11.90;1.00
12438;DHT22;6283;51.330;12.374;2023-05-18T07:00:08;12.10;1.00
12438;DHT22;6283;51.330;12.374;2023-05-18T07:02:36;12.20;1.00
12438;DHT22;6283;51.330;12.374;2023-05-18T07:05:03;12.10;1.00
12438;DHT22;6283;51.330;12.374;2023-05-18T07:07:30;12.20;1.00
12438;DHT22;6283;51.330;12.374;2023-05-18T07:09:59;12.30;1.00
12438;DHT22;6283;51.330;12.374;2023-05-18T07:12:24;12.30;1.00
12438;DHT22;6283;51.330;12.374;2023-05-18T07:14:51;12.20;1.00
12438;DHT22;6283;51.330;12.374;2023-05-18T07:17:17;12.60;1.00
12438;DHT22;6283;51.330;12.374;2023-05-18T07:19:43;12.70;1.00
12438;DHT22;6283;51.330;12.374;2023-05-18T07:22:08;12.50;1.00
12438;DHT22;6283;51.330;12.374;2023-05-18T07:24:34;12.50;1.00
12438;DHT22;6283;51.330;12.374;2023-05-18T07:27:00;12.80;1.00
12438;DHT22;6283;51.330;12.374;2023-05-18T07:29:25;12.90;1.00
12438;DHT22;6283;51.330;12.374;2023-05-18T07:31:51;13.10;1.00
12438;DHT22;6283;51.330;12.374;2023-05-18T07:34:17;13.00;1.00
12438;DHT22;6283;51.330;12.374;2023-05-18T07:36:42;13.00;1.00
12438;DHT22;6283;51.330;12.374;2023-05-18T07:39:08;13.30;1.00
12438;DHT22;6283;51.330;12.374;2023-05-18T07:41:41;13.10;1.00
12438;DHT22;6283;51.330;12.374;2023-05-18T07:44:07;13.20;1.00
12438;DHT22;6283;51.330;12.374;2023-05-18T07:46:33;13.40;1.00
12438;DHT22;6283;51.330;12.374;2023-05-18T07:48:58;13.10;1.00
12438;DHT22;6283;51.330;12.374;2023-05-18T07:51:24;13.30;1.00
12438;DHT22;6283;51.330;12.374;2023-05-18T07:53:50;13.40;1.00
12438;DHT22;6283;51.330;12.374;2023-05-18T07:56:16;13.40;1.00
12438;DHT22;6283;51.330;12.374;2023-05-18T07:58:42;13.80;1.00
12438;DHT22;6283;51.330;12.374;2023-05-18T08:01:08;13.80;1.00
12438;DHT22;6283;51.330;12.374;2023-05-18T08:03:34;13.80;1.00
12438;DHT22;6283;51.330;12.374;2023-05-18T08:06:00;13.80;1.00
12438;DHT22;6283;51.330;12.374;2023-05-18T08:08:26;13.80;1.00
12438;DHT22;6283;51.330;12.374;2023-05-18T08:10:51;14.10;1.00
12438;DHT22;6283;51.330;12.374;2023-05-18T08:13:17;14.10;1.00
12438;DHT22;6283;51.330;12.374;2023-05-18T08:15:45;14.20;1.00
12438;DHT22;6283;51.330;12.374;2023-05-18T08:18:10;14.50;1.00
12438;DHT22;6283;51.330;12.374;2023-05-18T08:20:36;14.40;1.00
12438;DHT22;6283;51.330;12.374;2023-05-18T08:23:01;14.50;1.00
12438;DHT22;6283;51.330;12.374;2023-05-18T08:25:27;14.50;1.00
12438;DHT22;6283;51.330;12.374;2023-05-18T08:27:53;14.50;1.00
12438;DHT22;6283;51.330;12.374;2023-05-18T08:30:18;14.60;1.00
12438;DHT22;6283;51.330;12.374;2023-05-18T08:32:46;14.80;1.00
12438;DHT22;6283;51.330;12.374;2023-05-18T08:35:12;14.80;1.00
12438;DHT22;6283;51.330;12.374;2023-05-18T08:37:38;15.00;1.00
12438;DHT22;6283;51.330;12.374;2023-05-18T08:40:04;15.10;1.00
12438;DHT22;6283;51.330;12.374;2023-05-18T08:42:50;15.40;1.00
12438;DHT22;6283;51.330;12.374;2023-05-18T08:45:24;15.60;1.00
12438;DHT22;6283;51.330;12.374;2023-05-18T08:47:54;15.90;1.00
12438;DHT22;6283;51.330;12.374;2023-05-18T08:50:21;16.10;1.00
12438;DHT22;6283;51.330;12.374;2023-05-18T08:52:47;16.20;1.00
12438;DHT22;6283;51.330;12.374;2023-05-18T08:55:16;16.30;1.00
12438;DHT22;6283;51.330;12.374;2023-05-18T08:57:45;16.30;1.00
12438;DHT22;6283;51.330;12.374;2023-05-18T09:00:15;16.30;1.00
12438;DHT22;6283;51.330;12.374;2023-05-18T09:02:42;16.30;1.00
12438;DHT22;6283;51.330;12.374;2023-05-18T09:05:08;16.40;1.00
12438;DHT22;6283;51.330;12.374;2023-05-18T09:07:34;16.60;1.00
12438;DHT22;6283;51.330;12.374;2023-05-18T09:10:02;16.80;1.00
12438;DHT22;6283;51.330;12.374;2023-05-18T09:12:27;16.90;1.00
12438;DHT22;6283;51.330;12.374;2023-05-18T09:14:54;16.90;1.00
12438;DHT22;6283;51.330;12.374;2023-05-18T09:17:20;16.90;1.00
12438;DHT22;6283;51.330;12.374;2023-05-18T09:19:48;16.90;1.00
12438;DHT22;6283;51.330;12.374;2023-05-18T09:22:13;16.80;1.00
12438;DHT22;6283;51.330;12.374;2023-05-18T09:24:40;16.70;1.00
12438;DHT22;6283;51.330;12.374;2023-05-18T09:27:06;16.50;1.00
12438;DHT22;6283;51.330;12.374;2023-05-18T09:29:32;16.40;1.00
12438;DHT22;6283;51.330;12.374;2023-05-18T09:32:02;16.30;1.00
12438;DHT22;6283;51.330;12.374;2023-05-18T09:34:38;16.30;1.00
12438;DHT22;6283;51.330;12.374;2023-05-18T09:37:05;16.30;1.00
12438;DHT22;6283;51.330;12.374;2023-05-18T09:39:31;16.40;1.00
12438;DHT22;6283;51.330;12.374;2023-05-18T09:41:57;16.50;1.00
12438;DHT22;6283;51.330;12.374;2023-05-18T09:44:35;16.60;1.00
12438;DHT22;6283;51.330;12.374;2023-05-18T09:47:01;16.60;1.00
12438;DHT22;6283;51.330;12.374;2023-05-18T09:49:30;16.50;1.00
12438;DHT22;6283;51.330;12.374;2023-05-18T09:51:56;16.40;1.00
12438;DHT22;6283;51.330;12.374;2023-05-18T09:54:24;16.30;1.00
12438;DHT22;6283;51.330;12.374;2023-05-18T09:56:50;16.30;1.00
12438;DHT22;6283;51.330;12.374;2023-05-18T09:59:16;16.30;1.00
12438;DHT22;6283;51.330;12.374;2023-05-18T10:01:59;16.20;1.00
12438;DHT22;6283;51.330;12.374;2023-05-18T10:04:40;16.30;1.00
12438;DHT22;6283;51.330;12.374;2023-05-18T10:07:14;16.40;1.00
12438;DHT22;6283;51.330;12.374;2023-05-18T10:09:41;16.70;1.00
12438;DHT22;6283;51.330;12.374;2023-05-18T10:12:11;16.90;1.00
12438;DHT22;6283;51.330;12.374;2023-05-18T10:14:38;16.90;1.00
12438;DHT22;6283;51.330;12.374;2023-05-18T10:17:04;16.90;1.00
12438;DHT22;6283;51.330;12.374;2023-05-18T10:19:33;16.90;1.00
12438;DHT22;6283;51.330;12.374;2023-05-18T10:22:01;17.00;1.00
12438;DHT22;6283;51.330;12.374;2023-05-18T10:24:30;17.00;1.00
12438;DHT22;6283;51.330;12.374;2023-05-18T10:27:00;17.10;1.00
12438;DHT22;6283;51.330;12.374;2023-05-18T10:29:31;17.20;1.00
12438;DHT22;6283;51.330;12.374;2023-05-18T10:31:59;17.30;1.00
12438;DHT22;6283;51.330;12.374;2023-05-18T10:34:31;17.40;1.00
12438;DHT22;6283;51.330;12.374;2023-05-18T10:36:59;17.50;1.00
12438;DHT22;6283;51.330;12.374;2023-05-18T10:39:26;17.60;1.00
12438;DHT22;6283;51.330;12.374;2023-05-18T10:41:54;17.60;1.00
12438;DHT22;6283;51.330;12.374;2023-05-18T10:44:21;17.70;1.00
12438;DHT22;6283;51.330;12.374;2023-05-18T10:46:49;17.90;1.00
12438;DHT22;6283;51.330;12.374;2023-05-18T10:49:16;18.10;1.00
12438;DHT22;6283;51.330;12.374;2023-05-18T10:51:43;18.20;1.00
12438;DHT22;6283;51.330;12.374;2023-05-18T10:54:12;18.30;1.00
12438;DHT22;6283;51.330;12.374;2023-05-18T10:56:48;18.30;1.00
12438;DHT22;6283;51.330;12.374;2023-05-18T10:59:15;18.30;1.00
12438;DHT22;6283;51.330;12.374;2023-05-18T11:01:43;18.40;1.00
12438;DHT22;6283;51.330;12.374;2023-05-18T11:04:10;18.50;1.00
12438;DHT22;6283;51.330;12.374;2023-05-18T11:06:36;18.40;1.00
12438;DHT22;6283;51.330;12.374;2023-05-18T11:09:02;18.40;1.00
12438;DHT22;6283;51.330;12.374;2023-05-18T11:11:29;18.40;1.00
12438;DHT22;6283;51.330;12.374;2023-05-18T11:14:01;18.50;1.00
12438;DHT22;6283;51.330;12.374;2023-05-18T11:16:35;18.50;1.00
12438;DHT22;6283;51.330;12.374;2023-05-18T11:19:05;18.60;1.00
12438;DHT22;6283;51.330;12.374;2023-05-18T11:26:39;18.90;1.00
12438;DHT22;6283;51.330;12.374;2023-05-18T11:29:35;18.90;1.00
12438;DHT22;6283;51.330;12.374;2023-05-18T11:32:02;18.90;1.00
12438;DHT22;6283;51.330;12.374;2023-05-18T11:37:17;19.00;1.00
12438;DHT22;6283;51.330;12.374;2023-05-18T11:40:02;19.20;1.00
12438;DHT22;6283;51.330;12.374;2023-05-18T11:42:32;19.20;1.00
12438;DHT22;6283;51.330;12.374;2023-05-18T11:45:05;19.20;1.00
12438;DHT22;6283;51.330;12.374;2023-05-18T11:47:32;19.20;1.00
12438;DHT22;6283;51.330;12.374;2023-05-18T11:50:01;19.40;1.00
12438;DHT22;6283;51.330;12.374;2023-05-18T11:52:27;19.50;1.00
12438;DHT22;6283;51.330;12.374;2023-05-18T11:54:55;19.60;1.00
12438;DHT22;6283;51.330;12.374;2023-05-18T11:57:26;19.70;1.00
12438;DHT22;6283;51.330;12.374;2023-05-18T12:00:05;19.70;1.00
12438;DHT22;6283;51.330;12.374;2023-05-18T12:02:36;19.60;1.00
12438;DHT22;6283;51.330;12.374;2023-05-18T12:05:06;19.70;1.00
12438;DHT22;6283;51.330;12.374;2023-05-18T12:07:33;19.60;1.00
12438;DHT22;6283;51.330;12.374;2023-05-18T12:10:08;19.70;1.00
12438;DHT22;6283;51.330;12.374;2023-05-18T12:12:35;19.80;1.00
12438;DHT22;6283;51.330;12.374;2023-05-18T12:15:02;19.80;1.00
12438;DHT22;6283;51.330;12.374;2023-05-18T12:17:43;19.90;1.00
12438;DHT22;6283;51.330;12.374;2023-05-18T12:22:44;20.00;1.00
12438;DHT22;6283;51.330;12.374;2023-05-18T12:25:11;20.00;1.00
12438;DHT22;6283;51.330;12.374;2023-05-18T12:27:42;20.10;1.00
12438;DHT22;6283;51.330;12.374;2023-05-18T12:30:15;20.20;1.00
12438;DHT22;6283;51.330;12.374;2023-05-18T12:32:52;20.40;1.00
12438;DHT22;6283;51.330;12.374;2023-05-18T12:35:25;20.60;1.00
12438;DHT22;6283;51.330;12.374;2023-05-18T12:37:52;20.70;1.00
12438;DHT22;6283;51.330;12.374;2023-05-18T12:40:22;20.90;1.00
12438;DHT22;6283;51.330;12.374;2023-05-18T12:42:59;21.00;1.00
12438;DHT22;6283;51.330;12.374;2023-05-18T12:45:32;21.10;1.00
12438;DHT22;6283;51.330;12.374;2023-05-18T12:48:04;21.10;1.00
12438;DHT22;6283;51.330;12.374;2023-05-18T12:50:30;21.10;1.00
12438;DHT22;6283;51.330;12.374;2023-05-18T12:52:56;20.90;1.00
12438;DHT22;6283;51.330;12.374;2023-05-18T12:55:23;20.90;1.00
12438;DHT22;6283;51.330;12.374;2023-05-18T13:00:35;20.90;1.00
12438;DHT22;6283;51.330;12.374;2023-05-18T13:03:07;20.70;1.00
12438;DHT22;6283;51.330;12.374;2023-05-18T13:05:32;20.80;1.00
12438;DHT22;6283;51.330;12.374;2023-05-18T13:07:58;20.90;1.00
12438;DHT22;6283;51.330;12.374;2023-05-18T13:10:24;21.10;1.00
12438;DHT22;6283;51.330;12.374;2023-05-18T13:12:50;21.20;1.00
12438;DHT22;6283;51.330;12.374;2023-05-18T13:15:21;21.50;1.00
12438;DHT22;6283;51.330;12.374;2023-05-18T13:17:58;21.70;1.00
12438;DHT22;6283;51.330;12.374;2023-05-18T13:20:40;22.20;1.00
12438;DHT22;6283;51.330;12.374;2023-05-18T13:23:15;22.70;1.00
12438;DHT22;6283;51.330;12.374;2023-05-18T13:25:41;22.80;1.00
12438;DHT22;6283;51.330;12.374;2023-05-18T13:28:08;22.70;1.00
12438;DHT22;6283;51.330;12.374;2023-05-18T13:30:38;22.50;1.00
12438;DHT22;6283;51.330;12.374;2023-05-18T13:33:05;22.60;1.00
12438;DHT22;6283;51.330;12.374;2023-05-18T13:35:34;22.90;1.00
12438;DHT22;6283;51.330;12.374;2023-05-18T13:38:00;22.80;1.00
12438;DHT22;6283;51.330;12.374;2023-05-18T13:40:26;22.60;1.00
12438;DHT22;6283;51.330;12.374;2023-05-18T13:42:52;22.40;1.00
12438;DHT22;6283;51.330;12.374;2023-05-18T13:45:17;22.40;1.00
12438;DHT22;6283;51.330;12.374;2023-05-18T13:47:45;22.30;1.00
12438;DHT22;6283;51.330;12.374;2023-05-18T13:50:15;22.10;1.00
12438;DHT22;6283;51.330;12.374;2023-05-18T13:52:41;22.00;1.00
12438;DHT22;6283;51.330;12.374;2023-05-18T13:55:08;22.20;1.00
12438;DHT22;6283;51.330;12.374;2023-05-18T13:57:34;22.70;1.00
12438;DHT22;6283;51.330;12.374;2023-05-18T14:00:00;23.20;1.00
12438;DHT22;6283;51.330;12.374;2023-05-18T14:02:42;23.60;1.00
12438;DHT22;6283;51.330;12.374;2023-05-18T14:05:09;23.80;1.00
12438;DHT22;6283;51.330;12.374;2023-05-18T14:07:39;23.70;1.00
12438;DHT22;6283;51.330;12.374;2023-05-18T14:10:06;23.40;1.00
12438;DHT22;6283;51.330;12.374;2023-05-18T14:12:35;23.20;1.00
12438;DHT22;6283;51.330;12.374;2023-05-18T14:15:03;22.90;1.00
12438;DHT22;6283;51.330;12.374;2023-05-18T14:17:29;22.70;1.00
12438;DHT22;6283;51.330;12.374;2023-05-18T14:19:55;22.40;1.00
12438;DHT22;6283;51.330;12.374;2023-05-18T14:22:21;22.30;1.00
12438;DHT22;6283;51.330;12.374;2023-05-18T14:24:50;22.30;1.00
12438;DHT22;6283;51.330;12.374;2023-05-18T14:27:15;22.30;1.00
12438;DHT22;6283;51.330;12.374;2023-05-18T14:29:41;22.60;1.00
12438;DHT22;6283;51.330;12.374;2023-05-18T14:32:07;22.80;1.00
12438;DHT22;6283;51.330;12.374;2023-05-18T14:34:33;22.90;1.00
12438;DHT22;6283;51.330;12.374;2023-05-18T14:36:58;23.00;1.00
12438;DHT22;6283;51.330;12.374;2023-05-18T14:39:24;22.80;1.00
12438;DHT22;6283;51.330;12.374;2023-05-18T14:41:50;22.70;1.00
12438;DHT22;6283;51.330;12.374;2023-05-18T14:44:16;22.70;1.00
12438;DHT22;6283;51.330;12.374;2023-05-18T14:46:42;22.90;1.00
12438;DHT22;6283;51.330;12.374;2023-05-18T14:49:08;23.50;1.00
12438;DHT22;6283;51.330;12.374;2023-05-18T14:51:34;24.00;1.00
12438;DHT22;6283;51.330;12.374;2023-05-18T14:53:59;24.20;1.00
12438;DHT22;6283;51.330;12.374;2023-05-18T14:56:25;24.10;1.00
12438;DHT22;6283;51.330;12.374;2023-05-18T14:58:51;24.00;1.00
12438;DHT22;6283;51.330;12.374;2023-05-18T15:01:18;24.00;1.00
12438;DHT22;6283;51.330;12.374;2023-05-18T15:03:44;24.20;1.00
12438;DHT22;6283;51.330;12.374;2023-05-18T15:06:10;24.30;1.00
12438;DHT22;6283;51.330;12.374;2023-05-18T15:08:35;24.40;1.00
12438;DHT22;6283;51.330;12.374;2023-05-18T15:11:01;24.20;1.00
12438;DHT22;6283;51.330;12.374;2023-05-18T15:13:26;23.90;1.00
12438;DHT22;6283;51.330;12.374;2023-05-18T15:15:52;23.40;1.00
12438;DHT22;6283;51.330;12.374;2023-05-18T15:18:18;22.90;1.00
12438;DHT22;6283;51.330;12.374;2023-05-18T15:20:44;22.50;1.00
12438;DHT22;6283;51.330;12.374;2023-05-18T15:23:11;22.20;1.00
12438;DHT22;6283;51.330;12.374;2023-05-18T15:25:38;21.90;1.00
12438;DHT22;6283;51.330;12.374;2023-05-18T15:28:04;21.90;1.00
12438;DHT22;6283;51.330;12.374;2023-05-18T15:30:30;22.10;1.00
12438;DHT22;6283;51.330;12.374;2023-05-18T15:32:56;22.20;1.00
12438;DHT22;6283;51.330;12.374;2023-05-18T15:35:22;22.40;1.00
12438;DHT22;6283;51.330;12.374;2023-05-18T15:37:48;22.50;1.00
12438;DHT22;6283;51.330;12.374;2023-05-18T15:40:17;22.60;1.00
12438;DHT22;6283;51.330;12.374;2023-05-18T15:42:42;22.50;1.00
12438;DHT22;6283;51.330;12.374;2023-05-18T15:45:08;22.20;1.00
12438;DHT22;6283;51.330;12.374;2023-05-18T15:47:34;22.00;1.00
12438;DHT22;6283;51.330;12.374;2023-05-18T15:50:00;21.90;1.00
12438;DHT22;6283;51.330;12.374;2023-05-18T15:52:25;21.60;1.00
12438;DHT22;6283;51.330;12.374;2023-05-18T15:54:51;21.40;1.00
12438;DHT22;6283;51.330;12.374;2023-05-18T15:57:16;21.30;1.00
12438;DHT22;6283;51.330;12.374;2023-05-18T15:59:42;21.20;1.00
12438;DHT22;6283;51.330;12.374;2023-05-18T16:02:08;21.10;1.00
12438;DHT22;6283;51.330;12.374;2023-05-18T16:04:33;20.90;1.00
12438;DHT22;6283;51.330;12.374;2023-05-18T16:06:59;20.80;1.00
12438;DHT22;6283;51.330;12.374;2023-05-18T16:09:27;20.70;1.00
12438;DHT22;6283;51.330;12.374;2023-05-18T16:11:52;20.60;1.00
12438;DHT22;6283;51.330;12.374;2023-05-18T16:14:18;20.40;1.00
12438;DHT22;6283;51.330;12.374;2023-05-18T16:16:44;20.20;1.00
12438;DHT22;6283;51.330;12.374;2023-05-18T16:19:10;20.00;1.00